Time,TemperatureF,DewpointF,PressureIn,WindDirection,WindDirectionDegrees,WindSpeedMPH,WindSpeedGustMPH,Humidity,HourlyPrecipIn,Conditions,Clouds,dailyrainin,SoftwareType,DateUTC
2013-02-16 00:09:00,46.7,40.0,30.04,WNW,297,3.0,3.0,77,0.00,,,0.00,weatherlink.com 1.10,2013-02-16 06:09:00,
2013-02-16 00:24:00,46.6,40.0,30.04,NW,309,2.0,4.0,78,0.00,,,0.00,weatherlink.com 1.10,2013-02-16 06:24:00,
2013-02-16 00:39:00,46.0,40.0,30.04,WNW,290,2.0,2.0,79,0.00,,,0.00,weatherlink.com 1.10,2013-02-16 06:39:00,
2013-02-16 00:54:00,45.6,40.0,30.04,WNW,286,1.0,3.0,80,0.00,,,0.00,weatherlink.com 1.10,2013-02-16 06:54:00,
2013-02-16 01:09:00,45.3,40.0,30.03,WNW,301,1.0,2.0,81,0.00,,,0.00,weatherlink.com 1.10,2013-02-16 07:09:00,
2013-02-16 01:24:00,45.1,40.0,30.03,WNW,298,1.0,2.0,81,0.00,,,0.00,weatherlink.com 1.10,2013-02-16 07:24:00,
2013-02-16 01:39:00,44.8,39.0,30.03,NW,307,0.0,1.0,81,0.00,,,0.00,weatherlink.com 1.10,2013-02-16 07:39:00,
2013-02-16 01:54:00,44.3,39.0,30.03,West,276,0.0,1.0,82,0.00,,,0.00,weatherlink.com 1.10,2013-02-16 07:54:00,
2013-02-16 02:09:00,43.5,39.0,30.03,NW,304,0.0,0.0,84,0.00,,,0.00,weatherlink.com 1.10,2013-02-16 08:09:00,
2013-02-16 02:24:00,43.0,39.0,30.03,NW,304,0.0,0.0,86,0.00,,,0.00,weatherlink.com 1.10,2013-02-16 08:24:00,
2013-02-16 02:39:00,43.1,40.0,30.03,West,274,0.0,2.0,87,0.00,,,0.00,weatherlink.com 1.10,2013-02-16 08:39:00,
2013-02-16 02:54:00,43.7,40.0,30.03,WNW,302,0.0,2.0,85,0.00,,,0.00,weatherlink.com 1.10,2013-02-16 08:54:00,
2013-02-16 03:09:00,43.9,40.0,30.02,NW,311,1.0,2.0,85,0.00,,,0.00,weatherlink.com 1.10,2013-02-16 09:09:00,
2013-02-16 03:24:00,44.0,40.0,30.03,WNW,286,0.0,1.0,85,0.00,,,0.00,weatherlink.com 1.10,2013-02-16 09:24:00,
2013-02-16 03:39:00,43.9,39.0,30.03,WNW,288,0.0,0.0,84,0.00,,,0.00,weatherlink.com 1.10,2013-02-16 09:39:00,
2013-02-16 03:54:00,44.2,40.0,30.03,WNW,288,0.0,4.0,84,0.00,,,0.00,weatherlink.com 1.10,2013-02-16 09:54:00,
2013-02-16 04:10:00,44.5,40.0,30.04,NW,307,0.0,4.0,84,0.00,,,0.00,weatherlink.com 1.10,2013-02-16 10:10:00,
2013-02-16 04:24:00,44.7,40.0,30.04,NNW,333,0.0,4.0,83,0.00,,,0.00,weatherlink.com 1.10,2013-02-16 10:24:00,
2013-02-16 04:39:00,44.8,40.0,30.05,NW,307,5.0,5.0,82,0.00,,,0.00,weatherlink.com 1.10,2013-02-16 10:39:00,
2013-02-16 04:54:00,45.1,39.0,30.05,WNW,299,1.0,8.0,79,0.00,,,0.00,weatherlink.com 1.10,2013-02-16 10:54:00,
2013-02-16 05:09:00,45.3,39.0,30.06,West,263,1.0,10.0,79,0.00,,,0.00,weatherlink.com 1.10,2013-02-16 11:09:00,
2013-02-16 05:24:00,44.1,38.0,30.07,NW,323,6.0,12.0,79,0.00,,,0.00,weatherlink.com 1.10,2013-02-16 11:24:00,
2013-02-16 05:39:00,42.8,37.0,30.07,WNW,292,0.0,5.0,81,0.00,,,0.00,weatherlink.com 1.10,2013-02-16 11:39:00,
2013-02-16 05:54:00,42.5,37.0,30.06,SW,228,0.0,1.0,82,0.00,,,0.00,weatherlink.com 1.10,2013-02-16 11:54:00,
2013-02-16 06:09:00,42.0,38.0,30.06,WSW,239,0.0,0.0,87,0.00,,,0.00,weatherlink.com 1.10,2013-02-16 12:09:00,
2013-02-16 06:24:00,41.7,38.0,30.07,WSW,239,0.0,0.0,87,0.00,,,0.00,weatherlink.com 1.10,2013-02-16 12:24:00,
2013-02-16 06:39:00,41.6,38.0,30.07,NW,307,0.0,1.0,86,0.00,,,0.00,weatherlink.com 1.10,2013-02-16 12:39:00,
2013-02-16 06:54:00,41.7,38.0,30.07,West,281,0.0,1.0,87,0.00,,,0.00,weatherlink.com 1.10,2013-02-16 12:54:00,
2013-02-16 07:09:00,41.7,38.0,30.08,WNW,293,0.0,1.0,86,0.00,,,0.00,weatherlink.com 1.10,2013-02-16 13:09:00,
2013-02-16 07:25:00,42.3,36.0,30.08,WNW,296,1.0,5.0,79,0.00,,,0.00,weatherlink.com 1.10,2013-02-16 13:25:00,
2013-02-16 07:40:00,42.8,37.0,30.09,SSW,211,2.0,4.0,79,0.00,,,0.00,weatherlink.com 1.10,2013-02-16 13:40:00,
2013-02-16 07:55:00,44.2,36.0,30.09,WNW,288,2.0,8.0,73,0.00,,,0.00,weatherlink.com 1.10,2013-02-16 13:55:00,
2013-02-16 08:10:00,45.5,36.0,30.09,WNW,297,5.0,7.0,69,0.00,,,0.00,weatherlink.com 1.10,2013-02-16 14:10:00,
2013-02-16 08:25:00,46.1,36.0,30.10,WNW,301,3.0,9.0,68,0.00,,,0.00,weatherlink.com 1.10,2013-02-16 14:25:00,
2013-02-16 08:40:00,46.7,36.0,30.10,WSW,243,3.0,9.0,66,0.00,,,0.00,weatherlink.com 1.10,2013-02-16 14:40:00,
2013-02-16 08:55:00,47.5,34.0,30.11,NW,304,4.0,8.0,61,0.00,,,0.00,weatherlink.com 1.10,2013-02-16 14:55:00,
2013-02-16 09:10:00,47.8,35.0,30.11,West,278,2.0,8.0,61,0.00,,,0.00,weatherlink.com 1.10,2013-02-16 15:10:00,
2013-02-16 09:25:00,48.5,33.0,30.11,WSW,243,5.0,9.0,56,0.00,,,0.00,weatherlink.com 1.10,2013-02-16 15:25:00,
2013-02-16 09:40:00,48.3,31.0,30.12,WNW,285,3.0,10.0,52,0.00,,,0.00,weatherlink.com 1.10,2013-02-16 15:40:00,
2013-02-16 09:55:00,48.9,32.0,30.12,WNW,288,3.0,10.0,52,0.00,,,0.00,weatherlink.com 1.10,2013-02-16 15:55:00,
2013-02-16 10:10:00,48.8,31.0,30.12,NW,304,4.0,12.0,50,0.00,,,0.00,weatherlink.com 1.10,2013-02-16 16:10:00,
2013-02-16 10:25:00,49.7,28.0,30.12,WNW,285,3.0,12.0,44,0.00,,,0.00,weatherlink.com 1.10,2013-02-16 16:25:00,
2013-02-16 10:40:00,50.1,28.0,30.12,WNW,288,8.0,13.0,43,0.00,,,0.00,weatherlink.com 1.10,2013-02-16 16:40:00,
2013-02-16 10:55:00,49.1,29.0,30.12,WNW,301,3.0,10.0,46,0.00,,,0.00,weatherlink.com 1.10,2013-02-16 16:55:00,
2013-02-16 11:10:00,49.5,27.0,30.12,West,273,2.0,17.0,42,0.00,,,0.00,weatherlink.com 1.10,2013-02-16 17:10:00,
2013-02-16 11:25:00,50.8,29.0,30.11,WNW,290,8.0,10.0,43,0.00,,,0.00,weatherlink.com 1.10,2013-02-16 17:25:00,
2013-02-16 11:40:00,49.8,28.0,30.11,WNW,290,3.0,11.0,44,0.00,,,0.00,weatherlink.com 1.10,2013-02-16 17:40:00,
2013-02-16 11:55:00,51.4,28.0,30.11,NW,305,4.0,11.0,40,0.00,,,0.00,weatherlink.com 1.10,2013-02-16 17:55:00,
2013-02-16 12:10:00,49.9,27.0,30.10,WNW,297,8.0,14.0,41,0.00,,,0.00,weatherlink.com 1.10,2013-02-16 18:10:00,
2013-02-16 12:25:00,49.7,27.0,30.09,West,267,4.0,16.0,41,0.00,,,0.00,weatherlink.com 1.10,2013-02-16 18:25:00,
2013-02-16 12:40:00,50.4,24.0,30.09,WSW,253,3.0,21.0,36,0.00,,,0.00,weatherlink.com 1.10,2013-02-16 18:40:00,
2013-02-16 12:55:00,52.3,27.0,30.09,WNW,284,3.0,18.0,37,0.00,,,0.00,weatherlink.com 1.10,2013-02-16 18:55:00,
2013-02-16 13:10:00,49.8,26.0,30.08,SSW,207,4.0,12.0,39,0.00,,,0.00,weatherlink.com 1.10,2013-02-16 19:10:00,
2013-02-16 13:25:00,50.1,25.0,30.08,WNW,288,2.0,16.0,37,0.00,,,0.00,weatherlink.com 1.10,2013-02-16 19:25:00,
2013-02-16 13:41:00,49.9,23.0,30.08,WSW,256,4.0,15.0,35,0.00,,,0.00,weatherlink.com 1.10,2013-02-16 19:41:00,
2013-02-16 13:55:00,50.1,25.0,30.08,WSW,244,5.0,12.0,37,0.00,,,0.00,weatherlink.com 1.10,2013-02-16 19:55:00,
2013-02-16 14:10:00,47.8,21.0,30.08,WSW,246,5.0,14.0,34,0.00,,,0.00,weatherlink.com 1.10,2013-02-16 20:10:00,
2013-02-16 14:25:00,50.3,21.0,30.08,NNE,27,2.0,15.0,32,0.00,,,0.00,weatherlink.com 1.10,2013-02-16 20:25:00,
2013-02-16 14:40:00,47.8,17.0,30.08,NNE,16,5.0,14.0,29,0.00,,,0.00,weatherlink.com 1.10,2013-02-16 20:40:00,
2013-02-16 14:55:00,48.6,20.0,30.08,WNW,303,3.0,13.0,32,0.00,,,0.00,weatherlink.com 1.10,2013-02-16 20:55:00,
2013-02-16 15:10:00,50.0,20.0,30.09,WNW,297,3.0,11.0,30,0.00,,,0.00,weatherlink.com 1.10,2013-02-16 21:10:00,
2013-02-16 15:25:00,47.4,19.0,30.09,NNW,347,2.0,12.0,33,0.00,,,0.00,weatherlink.com 1.10,2013-02-16 21:25:00,
2013-02-16 15:40:00,47.4,18.0,30.10,WNW,298,4.0,12.0,31,0.00,,,0.00,weatherlink.com 1.10,2013-02-16 21:40:00,
2013-02-16 15:55:00,48.4,19.0,30.10,NW,326,6.0,9.0,31,0.00,,,0.00,weatherlink.com 1.10,2013-02-16 21:55:00,
2013-02-16 16:10:00,47.6,18.0,30.10,NW,316,1.0,12.0,31,0.00,,,0.00,weatherlink.com 1.10,2013-02-16 22:10:00,
2013-02-16 16:25:00,45.9,18.0,30.10,NNW,339,1.0,12.0,33,0.00,,,0.00,weatherlink.com 1.10,2013-02-16 22:25:00,
2013-02-16 16:40:00,45.7,17.0,30.11,NNW,328,4.0,10.0,32,0.00,,,0.00,weatherlink.com 1.10,2013-02-16 22:40:00,
2013-02-16 16:55:00,44.8,19.0,30.11,West,263,2.0,6.0,35,0.00,,,0.00,weatherlink.com 1.10,2013-02-16 22:55:00,
2013-02-16 17:10:00,44.1,20.0,30.11,NW,305,0.0,8.0,39,0.00,,,0.00,weatherlink.com 1.10,2013-02-16 23:10:00,
2013-02-16 17:25:00,43.2,18.0,30.12,NW,304,4.0,9.0,36,0.00,,,0.00,weatherlink.com 1.10,2013-02-16 23:25:00,
2013-02-16 17:40:00,42.2,18.0,30.12,WNW,301,1.0,6.0,38,0.00,,,0.00,weatherlink.com 1.10,2013-02-16 23:40:00,
2013-02-16 17:56:00,41.1,19.0,30.13,West,279,1.0,3.0,42,0.00,,,0.00,weatherlink.com 1.10,2013-02-16 23:56:00,
2013-02-16 18:11:00,40.5,19.0,30.14,WNW,296,1.0,4.0,42,0.00,,,0.00,weatherlink.com 1.10,2013-02-17 00:11:00,
2013-02-16 18:26:00,40.0,20.0,30.14,WNW,294,2.0,6.0,45,0.00,,,0.00,weatherlink.com 1.10,2013-02-17 00:26:00,
2013-02-16 18:41:00,39.2,19.0,30.15,WNW,296,1.0,3.0,45,0.00,,,0.00,weatherlink.com 1.10,2013-02-17 00:41:00,
2013-02-16 18:56:00,38.7,20.0,30.16,WNW,291,1.0,4.0,47,0.00,,,0.00,weatherlink.com 1.10,2013-02-17 00:56:00,
2013-02-16 19:11:00,38.1,20.0,30.17,WNW,303,0.0,2.0,49,0.00,,,0.00,weatherlink.com 1.10,2013-02-17 01:11:00,
2013-02-16 19:26:00,37.4,21.0,30.18,WNW,290,1.0,2.0,51,0.00,,,0.00,weatherlink.com 1.10,2013-02-17 01:26:00,
2013-02-16 19:41:00,36.9,20.0,30.18,NW,308,0.0,2.0,51,0.00,,,0.00,weatherlink.com 1.10,2013-02-17 01:41:00,
2013-02-16 19:56:00,36.2,21.0,30.19,North,354,0.0,1.0,55,0.00,,,0.00,weatherlink.com 1.10,2013-02-17 01:56:00,
2013-02-16 20:11:00,35.6,21.0,30.20,West,281,0.0,2.0,55,0.00,,,0.00,weatherlink.com 1.10,2013-02-17 02:11:00,
2013-02-16 20:26:00,35.6,21.0,30.20,NW,309,0.0,3.0,56,0.00,,,0.00,weatherlink.com 1.10,2013-02-17 02:26:00,
2013-02-16 20:41:00,35.8,21.0,30.21,West,267,1.0,7.0,56,0.00,,,0.00,weatherlink.com 1.10,2013-02-17 02:41:00,
2013-02-16 20:56:00,36.0,21.0,30.22,West,270,0.0,5.0,55,0.00,,,0.00,weatherlink.com 1.10,2013-02-17 02:56:00,
2013-02-16 21:11:00,35.2,21.0,30.23,NW,305,0.0,3.0,57,0.00,,,0.00,weatherlink.com 1.10,2013-02-17 03:11:00,
2013-02-16 21:26:00,34.9,21.0,30.23,North,9,2.0,4.0,57,0.00,,,0.00,weatherlink.com 1.10,2013-02-17 03:26:00,
2013-02-16 21:41:00,35.0,21.0,30.23,WNW,283,0.0,4.0,57,0.00,,,0.00,weatherlink.com 1.10,2013-02-17 03:41:00,
2013-02-16 21:56:00,34.5,21.0,30.23,WNW,302,1.0,2.0,57,0.00,,,0.00,weatherlink.com 1.10,2013-02-17 03:56:00,
2013-02-16 22:11:00,33.3,23.0,30.23,WNW,302,0.0,0.0,65,0.00,,,0.00,weatherlink.com 1.10,2013-02-17 04:11:00,
2013-02-16 22:26:00,32.3,20.0,30.23,NW,312,0.0,2.0,62,0.00,,,0.00,weatherlink.com 1.10,2013-02-17 04:26:00,
2013-02-16 22:42:00,32.7,21.0,30.23,NW,312,0.0,1.0,62,0.00,,,0.00,weatherlink.com 1.10,2013-02-17 04:42:00,
2013-02-16 22:57:00,32.5,21.0,30.24,NW,312,0.0,1.0,62,0.00,,,0.00,weatherlink.com 1.10,2013-02-17 04:57:00,
2013-02-16 23:12:00,32.3,20.0,30.24,NW,312,0.0,1.0,62,0.00,,,0.00,weatherlink.com 1.10,2013-02-17 05:12:00,
2013-02-16 23:27:00,31.0,23.0,30.24,NW,312,0.0,0.0,71,0.00,,,0.00,weatherlink.com 1.10,2013-02-17 05:27:00,
2013-02-16 23:42:00,29.7,21.0,30.25,NW,312,0.0,0.0,69,0.00,,,0.00,weatherlink.com 1.10,2013-02-17 05:42:00,
2013-02-16 23:57:00,30.1,21.0,30.25,NW,312,0.0,0.0,68,0.00,,,0.00,weatherlink.com 1.10,2013-02-17 05:57:00,